sensor_id;sensor_type;location;lat;lon;timestamp;temperature;humidity
12604;DHT22;6367;52.508;13.284;2023-04-01T00:01:10;13.10;99.90
12604;DHT22;6367;52.508;13.284;2023-04-01T00:03:39;13.50;99.90
12604;DHT22;6367;52.508;13.284;2023-04-01T00:06:05;13.10;99.90
12604;DHT22;6367;52.508;13.284;2023-04-01T00:08:30;13.20;99.90
12604;DHT22;6367;52.508;13.284;2023-04-01T00:10:57;13.10;99.90
12604;DHT22;6367;52.508;13.284;2023-04-01T00:13:25;13.20;99.90
12604;DHT22;6367;52.508;13.284;2023-04-01T00:15:52;13.10;99.90
12604;DHT22;6367;52.508;13.284;2023-04-01T00:18:18;13.10;99.90
12604;DHT22;6367;52.508;13.284;2023-04-01T00:20:48;13.20;99.90
12604;DHT22;6367;52.508;13.284;2023-04-01T00:23:15;13.10;99.90
12604;DHT22;6367;52.508;13.284;2023-04-01T00:25:42;13.00;99.90
12604;DHT22;6367;52.508;13.284;2023-04-01T00:28:07;13.00;99.90
12604;DHT22;6367;52.508;13.284;2023-04-01T00:30:33;13.00;99.90
12604;DHT22;6367;52.508;13.284;2023-04-01T00:32:59;13.20;99.90
12604;DHT22;6367;52.508;13.284;2023-04-01T00:35:25;13.20;99.90
12604;DHT22;6367;52.508;13.284;2023-04-01T00:37:50;13.30;99.90
12604;DHT22;6367;52.508;13.284;2023-04-01T00:40:32;13.30;99.90
12604;DHT22;6367;52.508;13.284;2023-04-01T00:42:58;13.30;99.90
12604;DHT22;6367;52.508;13.284;2023-04-01T00:45:37;13.20;99.90
12604;DHT22;6367;52.508;13.284;2023-04-01T00:48:22;13.30;99.90
12604;DHT22;6367;52.508;13.284;2023-04-01T00:50:53;13.30;99.90
12604;DHT22;6367;52.508;13.284;2023-04-01T00:53:20;13.30;99.90
12604;DHT22;6367;52.508;13.284;2023-04-01T00:58:27;13.40;99.90
12604;DHT22;6367;52.508;13.284;2023-04-01T01:00:55;13.40;99.90
12604;DHT22;6367;52.508;13.284;2023-04-01T01:03:22;13.40;99.90
12604;DHT22;6367;52.508;13.284;2023-04-01T01:11:05;13.40;99.90
12604;DHT22;6367;52.508;13.284;2023-04-01T01:13:54;13.40;99.90
12604;DHT22;6367;52.508;13.284;2023-04-01T01:16:27;13.30;99.90
12604;DHT22;6367;52.508;13.284;2023-04-01T01:27:26;13.30;99.90
12604;DHT22;6367;52.508;13.284;2023-04-01T01:35:18;13.30;99.90
12604;DHT22;6367;52.508;13.284;2023-04-01T01:37:50;13.30;99.90
12604;DHT22;6367;52.508;13.284;2023-04-01T01:40:16;13.30;99.90
12604;DHT22;6367;52.508;13.284;2023-04-01T01:42:54;13.20;99.90
12604;DHT22;6367;52.508;13.284;2023-04-01T01:45:23;13.70;99.90
12604;DHT22;6367;52.508;13.284;2023-04-01T01:47:51;13.30;99.90
12604;DHT22;6367;52.508;13.284;2023-04-01T01:50:17;13.30;99.90
12604;DHT22;6367;52.508;13.284;2023-04-01T01:52:44;13.40;99.90
12604;DHT22;6367;52.508;13.284;2023-04-01T01:55:35;13.50;99.90
12604;DHT22;6367;52.508;13.284;2023-04-01T01:58:51;13.50;99.90
12604;DHT22;6367;52.508;13.284;2023-04-01T02:00:58;13.50;99.90
12604;DHT22;6367;52.508;13.284;2023-04-01T02:03:27;13.50;99.90
12604;DHT22;6367;52.508;13.284;2023-04-01T02:05:56;13.50;99.90
12604;DHT22;6367;52.508;13.284;2023-04-01T02:08:29;13.50;99.90
12604;DHT22;6367;52.508;13.284;2023-04-01T02:11:03;13.50;99.90
12604;DHT22;6367;52.508;13.284;2023-04-01T02:13:55;13.50;99.90
12604;DHT22;6367;52.508;13.284;2023-04-01T02:16:37;13.50;99.90
12604;DHT22;6367;52.508;13.284;2023-04-01T02:19:05;13.40;99.90
12604;DHT22;6367;52.508;13.284;2023-04-01T02:21:33;13.50;99.90
12604;DHT22;6367;52.508;13.284;2023-04-01T02:24:02;13.40;99.90
12604;DHT22;6367;52.508;13.284;2023-04-01T02:26:30;13.40;99.90
12604;DHT22;6367;52.508;13.284;2023-04-01T02:28:56;13.30;99.90
12604;DHT22;6367;52.508;13.284;2023-04-01T02:31:23;13.00;99.90
12604;DHT22;6367;52.508;13.284;2023-04-01T02:33:50;13.30;99.90
12604;DHT22;6367;52.508;13.284;2023-04-01T02:36:16;13.30;99.90
12604;DHT22;6367;52.508;13.284;2023-04-01T02:38:44;13.50;99.90
12604;DHT22;6367;52.508;13.284;2023-04-01T02:41:10;13.50;99.90
12604;DHT22;6367;52.508;13.284;2023-04-01T02:43:36;13.40;99.90
12604;DHT22;6367;52.508;13.284;2023-04-01T02:46:02;13.40;99.90
12604;DHT22;6367;52.508;13.284;2023-04-01T02:48:28;13.40;99.90
12604;DHT22;6367;52.508;13.284;2023-04-01T02:50:54;13.40;99.90
12604;DHT22;6367;52.508;13.284;2023-04-01T02:53:20;13.40;99.90
12604;DHT22;6367;52.508;13.284;2023-04-01T02:55:45;13.30;99.90
12604;DHT22;6367;52.508;13.284;2023-04-01T02:58:11;13.40;99.90
12604;DHT22;6367;52.508;13.284;2023-04-01T03:00:37;13.30;99.90
12604;DHT22;6367;52.508;13.284;2023-04-01T03:03:03;13.30;99.90
12604;DHT22;6367;52.508;13.284;2023-04-01T03:05:29;13.20;99.90
12604;DHT22;6367;52.508;13.284;2023-04-01T03:07:55;13.10;99.90
12604;DHT22;6367;52.508;13.284;2023-04-01T03:10:21;13.00;99.90
12604;DHT22;6367;52.508;13.284;2023-04-01T03:12:47;13.20;99.90
12604;DHT22;6367;52.508;13.284;2023-04-01T03:15:13;13.30;99.90
12604;DHT22;6367;52.508;13.284;2023-04-01T03:17:41;13.30;99.90
12604;DHT22;6367;52.508;13.284;2023-04-01T03:20:08;13.10;99.90
12604;DHT22;6367;52.508;13.284;2023-04-01T03:22:35;13.20;99.90
12604;DHT22;6367;52.508;13.284;2023-04-01T03:25:02;13.20;99.90
12604;DHT22;6367;52.508;13.284;2023-04-01T03:27:28;13.30;99.90
12604;DHT22;6367;52.508;13.284;2023-04-01T03:29:54;13.20;99.90
12604;DHT22;6367;52.508;13.284;2023-04-01T03:32:19;13.20;99.90
12604;DHT22;6367;52.508;13.284;2023-04-01T03:34:45;13.20;99.90
12604;DHT22;6367;52.508;13.284;2023-04-01T03:37:11;13.20;99.90
12604;DHT22;6367;52.508;13.284;2023-04-01T03:39:37;13.30;99.90
12604;DHT22;6367;52.508;13.284;2023-04-01T03:42:03;12.70;99.90
12604;DHT22;6367;52.508;13.284;2023-04-01T03:44:32;13.30;99.90
12604;DHT22;6367;52.508;13.284;2023-04-01T03:46:58;13.30;99.90
12604;DHT22;6367;52.508;13.284;2023-04-01T03:49:23;13.30;99.90
12604;DHT22;6367;52.508;13.284;2023-04-01T03:51:49;13.20;99.90
12604;DHT22;6367;52.508;13.284;2023-04-01T03:54:15;13.30;99.90
12604;DHT22;6367;52.508;13.284;2023-04-01T03:56:42;13.30;99.90
12604;DHT22;6367;52.508;13.284;2023-04-01T03:59:08;13.40;99.90
12604;DHT22;6367;52.508;13.284;2023-04-01T04:01:35;13.30;99.90
12604;DHT22;6367;52.508;13.284;2023-04-01T04:04:01;13.40;99.90
12604;DHT22;6367;52.508;13.284;2023-04-01T04:06:27;13.40;99.90
12604;DHT22;6367;52.508;13.284;2023-04-01T04:08:53;13.40;99.90
12604;DHT22;6367;52.508;13.284;2023-04-01T04:11:22;13.30;99.90
12604;DHT22;6367;52.508;13.284;2023-04-01T04:13:47;13.20;99.90
12604;DHT22;6367;52.508;13.284;2023-04-01T04:16:15;13.20;99.90
12604;DHT22;6367;52.508;13.284;2023-04-01T04:18:41;13.20;99.90
12604;DHT22;6367;52.508;13.284;2023-04-01T04:21:10;13.30;99.90
12604;DHT22;6367;52.508;13.284;2023-04-01T04:23:36;13.30;99.90
12604;DHT22;6367;52.508;13.284;2023-04-01T04:26:05;13.20;99.90
12604;DHT22;6367;52.508;13.284;2023-04-01T04:28:32;13.30;99.90
12604;DHT22;6367;52.508;13.284;2023-04-01T04:30:58;13.30;99.90
12604;DHT22;6367;52.508;13.284;2023-04-01T04:33:24;13.30;99.90
12604;DHT22;6367;52.508;13.284;2023-04-01T04:35:50;13.30;99.90
12604;DHT22;6367;52.508;13.284;2023-04-01T04:38:17;13.40;99.90
12604;DHT22;6367;52.508;13.284;2023-04-01T04:40:43;13.30;99.90
12604;DHT22;6367;52.508;13.284;2023-04-01T04:43:13;13.10;99.90
12604;DHT22;6367;52.508;13.284;2023-04-01T04:45:39;13.20;99.90
12604;DHT22;6367;52.508;13.284;2023-04-01T04:48:07;13.10;99.90
12604;DHT22;6367;52.508;13.284;2023-04-01T04:50:35;13.10;99.90
12604;DHT22;6367;52.508;13.284;2023-04-01T04:53:01;13.20;99.90
12604;DHT22;6367;52.508;13.284;2023-04-01T04:55:26;13.30;99.90
12604;DHT22;6367;52.508;13.284;2023-04-01T04:57:52;13.20;99.90
12604;DHT22;6367;52.508;13.284;2023-04-01T05:00:18;13.20;99.90
12604;DHT22;6367;52.508;13.284;2023-04-01T05:02:44;13.20;99.90
12604;DHT22;6367;52.508;13.284;2023-04-01T05:05:09;13.20;99.90
12604;DHT22;6367;52.508;13.284;2023-04-01T05:07:35;13.20;99.90
12604;DHT22;6367;52.508;13.284;2023-04-01T05:10:01;13.20;99.90
12604;DHT22;6367;52.508;13.284;2023-04-01T05:12:27;13.20;99.90
12604;DHT22;6367;52.508;13.284;2023-04-01T05:14:53;13.20;99.90
12604;DHT22;6367;52.508;13.284;2023-04-01T05:17:18;13.30;99.90
12604;DHT22;6367;52.508;13.284;2023-04-01T05:19:44;13.20;99.90
12604;DHT22;6367;52.508;13.284;2023-04-01T05:22:10;13.20;99.90
12604;DHT22;6367;52.508;13.284;2023-04-01T05:24:35;13.30;99.90
12604;DHT22;6367;52.508;13.284;2023-04-01T05:27:01;13.30;99.90
12604;DHT22;6367;52.508;13.284;2023-04-01T05:29:27;13.20;99.90
12604;DHT22;6367;52.508;13.284;2023-04-01T05:31:53;13.20;99.90
12604;DHT22;6367;52.508;13.284;2023-04-01T05:34:19;13.20;99.90
12604;DHT22;6367;52.508;13.284;2023-04-01T05:36:44;13.30;99.90
12604;DHT22;6367;52.508;13.284;2023-04-01T05:39:10;13.20;99.90
12604;DHT22;6367;52.508;13.284;2023-04-01T05:41:37;13.20;99.90
12604;DHT22;6367;52.508;13.284;2023-04-01T05:44:03;13.20;99.90
12604;DHT22;6367;52.508;13.284;2023-04-01T05:46:29;13.20;99.90
12604;DHT22;6367;52.508;13.284;2023-04-01T05:48:55;13.30;99.90
12604;DHT22;6367;52.508;13.284;2023-04-01T05:51:21;13.30;99.90
12604;DHT22;6367;52.508;13.284;2023-04-01T05:53:46;13.20;99.90
12604;DHT22;6367;52.508;13.284;2023-04-01T05:56:12;13.30;99.90
12604;DHT22;6367;52.508;13.284;2023-04-01T05:58:39;13.30;99.90
12604;DHT22;6367;52.508;13.284;2023-04-01T06:01:07;13.50;99.90
12604;DHT22;6367;52.508;13.284;2023-04-01T06:03:33;13.50;99.90
12604;DHT22;6367;52.508;13.284;2023-04-01T06:05:59;13.40;99.90
12604;DHT22;6367;52.508;13.284;2023-04-01T06:08:27;13.40;99.90
12604;DHT22;6367;52.508;13.284;2023-04-01T06:11:01;13.40;99.90
12604;DHT22;6367;52.508;13.284;2023-04-01T06:16:27;13.40;99.90
12604;DHT22;6367;52.508;13.284;2023-04-01T06:24:39;13.30;99.90
12604;DHT22;6367;52.508;13.284;2023-04-01T06:35:58;13.40;99.90
12604;DHT22;6367;52.508;13.284;2023-04-01T06:41:07;13.40;99.90
12604;DHT22;6367;52.508;13.284;2023-04-01T06:54:33;13.60;99.90
12604;DHT22;6367;52.508;13.284;2023-04-01T06:59:45;13.70;99.90
12604;DHT22;6367;52.508;13.284;2023-04-01T07:04:40;13.80;99.90
12604;DHT22;6367;52.508;13.284;2023-04-01T07:09:52;13.80;99.90
12604;DHT22;6367;52.508;13.284;2023-04-01T07:12:40;14.00;99.90
12604;DHT22;6367;52.508;13.284;2023-04-01T07:18:03;13.80;99.90
12604;DHT22;6367;52.508;13.284;2023-04-01T07:20:32;13.90;99.90
12604;DHT22;6367;52.508;13.284;2023-04-01T07:23:04;14.00;99.90
12604;DHT22;6367;52.508;13.284;2023-04-01T07:25:45;14.10;99.90
12604;DHT22;6367;52.508;13.284;2023-04-01T07:28:13;14.10;99.90
12604;DHT22;6367;52.508;13.284;2023-04-01T07:33:19;14.30;99.90
12604;DHT22;6367;52.508;13.284;2023-04-01T07:35:57;14.30;99.90
12604;DHT22;6367;52.508;13.284;2023-04-01T07:38:32;14.40;99.90
12604;DHT22;6367;52.508;13.284;2023-04-01T07:41:24;14.40;99.90
12604;DHT22;6367;52.508;13.284;2023-04-01T07:47:11;14.50;99.90
12604;DHT22;6367;52.508;13.284;2023-04-01T07:55:39;14.60;99.90
12604;DHT22;6367;52.508;13.284;2023-04-01T07:58:37;14.70;99.90
12604;DHT22;6367;52.508;13.284;2023-04-01T08:01:36;14.60;99.90
12604;DHT22;6367;52.508;13.284;2023-04-01T08:07:15;14.60;99.90
12604;DHT22;6367;52.508;13.284;2023-04-01T08:09:48;14.70;99.90
12604;DHT22;6367;52.508;13.284;2023-04-01T08:15:23;14.70;99.90
12604;DHT22;6367;52.508;13.284;2023-04-01T08:18:08;14.70;99.90
12604;DHT22;6367;52.508;13.284;2023-04-01T08:20:48;14.70;99.90
12604;DHT22;6367;52.508;13.284;2023-04-01T08:23:21;14.70;99.90
12604;DHT22;6367;52.508;13.284;2023-04-01T08:26:05;14.60;99.90
12604;DHT22;6367;52.508;13.284;2023-04-01T08:29:02;14.70;99.90
12604;DHT22;6367;52.508;13.284;2023-04-01T08:34:39;14.60;99.90
12604;DHT22;6367;52.508;13.284;2023-04-01T08:37:17;14.60;99.90
12604;DHT22;6367;52.508;13.284;2023-04-01T08:40:08;14.70;99.90
12604;DHT22;6367;52.508;13.284;2023-04-01T08:42:48;14.60;99.90
12604;DHT22;6367;52.508;13.284;2023-04-01T08:48:12;14.50;99.90
12604;DHT22;6367;52.508;13.284;2023-04-01T09:02:04;14.40;99.90
12604;DHT22;6367;52.508;13.284;2023-04-01T09:05:04;14.30;99.90
12604;DHT22;6367;52.508;13.284;2023-04-01T09:11:08;14.00;99.90
12604;DHT22;6367;52.508;13.284;2023-04-01T09:22:13;13.80;99.90
12604;DHT22;6367;52.508;13.284;2023-04-01T09:27:56;13.60;99.90
12604;DHT22;6367;52.508;13.284;2023-04-01T09:30:41;13.60;99.90
12604;DHT22;6367;52.508;13.284;2023-04-01T09:33:37;13.60;99.90
12604;DHT22;6367;52.508;13.284;2023-04-01T09:39:37;13.60;99.90
12604;DHT22;6367;52.508;13.284;2023-04-01T09:45:00;13.40;99.90
12604;DHT22;6367;52.508;13.284;2023-04-01T09:48:04;13.40;99.90
12604;DHT22;6367;52.508;13.284;2023-04-01T10:21:17;13.10;99.90
12604;DHT22;6367;52.508;13.284;2023-04-01T10:24:11;13.00;99.90
12604;DHT22;6367;52.508;13.284;2023-04-01T10:27:07;12.90;99.90
12604;DHT22;6367;52.508;13.284;2023-04-01T10:41:10;12.60;99.90
12604;DHT22;6367;52.508;13.284;2023-04-01T10:46:34;12.50;99.90
12604;DHT22;6367;52.508;13.284;2023-04-01T11:18:26;12.30;99.90
12604;DHT22;6367;52.508;13.284;2023-04-01T11:32:54;12.40;99.90
12604;DHT22;6367;52.508;13.284;2023-04-01T11:37:52;12.40;99.90
12604;DHT22;6367;52.508;13.284;2023-04-01T11:40:42;12.40;99.90
12604;DHT22;6367;52.508;13.284;2023-04-01T11:45:50;12.50;99.90
12604;DHT22;6367;52.508;13.284;2023-04-01T11:54:43;12.60;99.90
12604;DHT22;6367;52.508;13.284;2023-04-01T12:19:43;12.50;99.90
12604;DHT22;6367;52.508;13.284;2023-04-01T12:22:23;12.40;99.90
12604;DHT22;6367;52.508;13.284;2023-04-01T12:24:58;12.50;99.90
12604;DHT22;6367;52.508;13.284;2023-04-01T12:32:53;12.50;99.90
12604;DHT22;6367;52.508;13.284;2023-04-01T12:41:13;12.20;99.90
12604;DHT22;6367;52.508;13.284;2023-04-01T12:49:17;11.90;99.90
12604;DHT22;6367;52.508;13.284;2023-04-01T12:52:05;11.70;99.90
12604;DHT22;6367;52.508;13.284;2023-04-01T13:02:26;12.00;99.90
12604;DHT22;6367;52.508;13.284;2023-04-01T13:15:41;11.90;99.90
12604;DHT22;6367;52.508;13.284;2023-04-01T13:18:22;11.70;99.90
12604;DHT22;6367;52.508;13.284;2023-04-01T13:21:06;11.60;99.90
12604;DHT22;6367;52.508;13.284;2023-04-01T13:23:50;11.60;99.90
12604;DHT22;6367;52.508;13.284;2023-04-01T13:29:25;11.40;99.90
12604;DHT22;6367;52.508;13.284;2023-04-01T13:32:15;11.50;99.90
12604;DHT22;6367;52.508;13.284;2023-04-01T13:35:20;11.50;99.90
12604;DHT22;6367;52.508;13.284;2023-04-01T13:43:34;11.10;99.90
12604;DHT22;6367;52.508;13.284;2023-04-01T13:54:28;11.10;99.90
12604;DHT22;6367;52.508;13.284;2023-04-01T14:02:55;11.00;99.90
12604;DHT22;6367;52.508;13.284;2023-04-01T14:14:18;11.00;99.90
12604;DHT22;6367;52.508;13.284;2023-04-01T14:30:15;11.50;99.90
12604;DHT22;6367;52.508;13.284;2023-04-01T14:56:05;11.00;99.90
12604;DHT22;6367;52.508;13.284;2023-04-01T14:58:50;11.00;99.90
12604;DHT22;6367;52.508;13.284;2023-04-01T15:10:07;11.10;99.90
12604;DHT22;6367;52.508;13.284;2023-04-01T15:13:15;11.00;99.90
12604;DHT22;6367;52.508;13.284;2023-04-01T15:15:58;10.90;99.90
12604;DHT22;6367;52.508;13.284;2023-04-01T15:18:46;10.90;99.90
12604;DHT22;6367;52.508;13.284;2023-04-01T15:24:51;11.10;99.90
12604;DHT22;6367;52.508;13.284;2023-04-01T15:27:43;11.10;99.90
12604;DHT22;6367;52.508;13.284;2023-04-01T15:41:23;10.70;99.90
12604;DHT22;6367;52.508;13.284;2023-04-01T15:43:53;10.60;99.90
12604;DHT22;6367;52.508;13.284;2023-04-01T15:54:25;10.80;99.90
12604;DHT22;6367;52.508;13.284;2023-04-01T16:00:02;10.70;99.90
12604;DHT22;6367;52.508;13.284;2023-04-01T16:02:47;10.80;99.90
12604;DHT22;6367;52.508;13.284;2023-04-01T16:27:08;10.60;99.90
12604;DHT22;6367;52.508;13.284;2023-04-01T16:29:47;10.40;99.90
12604;DHT22;6367;52.508;13.284;2023-04-01T16:32:37;10.40;99.90
12604;DHT22;6367;52.508;13.284;2023-04-01T16:35:30;10.30;99.90
12604;DHT22;6367;52.508;13.284;2023-04-01T16:38:07;10.10;99.90
12604;DHT22;6367;52.508;13.284;2023-04-01T16:43:13;10.30;99.90
12604;DHT22;6367;52.508;13.284;2023-04-01T16:46:20;10.20;99.90
12604;DHT22;6367;52.508;13.284;2023-04-01T16:49:17;10.20;99.90
12604;DHT22;6367;52.508;13.284;2023-04-01T16:57:43;10.00;99.90
12604;DHT22;6367;52.508;13.284;2023-04-01T17:00:44;9.80;99.90
12604;DHT22;6367;52.508;13.284;2023-04-01T17:03:39;9.90;99.90
12604;DHT22;6367;52.508;13.284;2023-04-01T17:11:19;9.90;99.90
12604;DHT22;6367;52.508;13.284;2023-04-01T17:14:08;10.50;99.90
12604;DHT22;6367;52.508;13.284;2023-04-01T17:19:37;10.20;99.90
12604;DHT22;6367;52.508;13.284;2023-04-01T17:25:17;9.90;99.90
12604;DHT22;6367;52.508;13.284;2023-04-01T17:27:57;9.60;99.90
12604;DHT22;6367;52.508;13.284;2023-04-01T17:47:26;9.20;99.90
12604;DHT22;6367;52.508;13.284;2023-04-01T18:01:45;8.80;99.90
12604;DHT22;6367;52.508;13.284;2023-04-01T18:04:48;8.80;99.90
12604;DHT22;6367;52.508;13.284;2023-04-01T18:15:40;8.70;99.90
12604;DHT22;6367;52.508;13.284;2023-04-01T18:21:40;9.00;99.90
12604;DHT22;6367;52.508;13.284;2023-04-01T18:27:16;8.90;99.90
12604;DHT22;6367;52.508;13.284;2023-04-01T18:37:32;9.00;99.90
12604;DHT22;6367;52.508;13.284;2023-04-01T18:45:53;8.80;99.90
12604;DHT22;6367;52.508;13.284;2023-04-01T18:48:59;8.80;99.90
12604;DHT22;6367;52.508;13.284;2023-04-01T18:52:12;8.70;99.90
12604;DHT22;6367;52.508;13.284;2023-04-01T18:57:14;8.40;99.90
12604;DHT22;6367;52.508;13.284;2023-04-01T18:59:43;8.40;99.90
12604;DHT22;6367;52.508;13.284;2023-04-01T19:02:31;8.60;99.90
12604;DHT22;6367;52.508;13.284;2023-04-01T19:07:48;8.70;99.90
12604;DHT22;6367;52.508;13.284;2023-04-01T19:10:40;8.50;99.90
12604;DHT22;6367;52.508;13.284;2023-04-01T19:19:08;8.20;99.90
12604;DHT22;6367;52.508;13.284;2023-04-01T19:38:22;8.30;99.90
12604;DHT22;6367;52.508;13.284;2023-04-01T19:40:54;8.20;99.90
12604;DHT22;6367;52.508;13.284;2023-04-01T19:51:35;8.30;99.90
12604;DHT22;6367;52.508;13.284;2023-04-01T19:57:09;8.30;99.90
12604;DHT22;6367;52.508;13.284;2023-04-01T19:59:46;8.20;99.90
12604;DHT22;6367;52.508;13.284;2023-04-01T20:05:28;8.20;99.90
12604;DHT22;6367;52.508;13.284;2023-04-01T20:08:06;8.30;99.90
12604;DHT22;6367;52.508;13.284;2023-04-01T20:13:41;8.40;99.90
12604;DHT22;6367;52.508;13.284;2023-04-01T20:16:11;8.50;99.90
12604;DHT22;6367;52.508;13.284;2023-04-01T20:18:59;8.50;99.90
12604;DHT22;6367;52.508;13.284;2023-04-01T20:21:44;8.50;99.90
12604;DHT22;6367;52.508;13.284;2023-04-01T20:24:16;8.60;99.90
12604;DHT22;6367;52.508;13.284;2023-04-01T20:29:37;8.30;99.90
12604;DHT22;6367;52.508;13.284;2023-04-01T20:32:21;8.20;99.90
12604;DHT22;6367;52.508;13.284;2023-04-01T20:37:50;8.30;99.90
12604;DHT22;6367;52.508;13.284;2023-04-01T20:45:42;7.80;99.90
12604;DHT22;6367;52.508;13.284;2023-04-01T20:51:18;8.10;99.90
12604;DHT22;6367;52.508;13.284;2023-04-01T21:00:03;7.90;99.90
12604;DHT22;6367;52.508;13.284;2023-04-01T21:25:21;7.80;99.90
12604;DHT22;6367;52.508;13.284;2023-04-01T21:30:39;7.60;99.90
12604;DHT22;6367;52.508;13.284;2023-04-01T21:33:22;7.80;99.90
12604;DHT22;6367;52.508;13.284;2023-04-01T21:36:20;7.40;99.90
12604;DHT22;6367;52.508;13.284;2023-04-01T21:41:47;7.60;99.90
12604;DHT22;6367;52.508;13.284;2023-04-01T21:50:14;7.50;99.90
12604;DHT22;6367;52.508;13.284;2023-04-01T21:53:26;7.40;99.90
12604;DHT22;6367;52.508;13.284;2023-04-01T22:05:25;7.50;99.90
12604;DHT22;6367;52.508;13.284;2023-04-01T22:10:54;7.70;99.90
12604;DHT22;6367;52.508;13.284;2023-04-01T22:13:32;7.70;99.90
12604;DHT22;6367;52.508;13.284;2023-04-01T22:16:14;7.60;99.90
12604;DHT22;6367;52.508;13.284;2023-04-01T22:19:02;7.60;99.90
12604;DHT22;6367;52.508;13.284;2023-04-01T22:32:48;7.30;99.90
12604;DHT22;6367;52.508;13.284;2023-04-01T22:39:01;7.40;99.90
12604;DHT22;6367;52.508;13.284;2023-04-01T22:44:43;7.50;99.90
12604;DHT22;6367;52.508;13.284;2023-04-01T22:50:22;7.70;99.90
12604;DHT22;6367;52.508;13.284;2023-04-01T22:55:38;7.60;99.90
12604;DHT22;6367;52.508;13.284;2023-04-01T22:58:09;7.50;99.90
12604;DHT22;6367;52.508;13.284;2023-04-01T23:00:54;7.40;99.90
12604;DHT22;6367;52.508;13.284;2023-04-01T23:03:31;7.40;99.90
12604;DHT22;6367;52.508;13.284;2023-04-01T23:05:59;7.40;99.90
12604;DHT22;6367;52.508;13.284;2023-04-01T23:11:27;7.70;99.90
12604;DHT22;6367;52.508;13.284;2023-04-01T23:22:33;7.60;99.90
12604;DHT22;6367;52.508;13.284;2023-04-01T23:33:21;8.40;99.90
12604;DHT22;6367;52.508;13.284;2023-04-01T23:38:15;7.70;99.90
12604;DHT22;6367;52.508;13.284;2023-04-01T23:40:41;7.60;99.90
12604;DHT22;6367;52.508;13.284;2023-04-01T23:43:34;7.50;99.90
12604;DHT22;6367;52.508;13.284;2023-04-01T23:46:02;7.60;99.90
12604;DHT22;6367;52.508;13.284;2023-04-01T23:48:38;7.60;99.90
12604;DHT22;6367;52.508;13.284;2023-04-01T23:51:14;7.70;99.90
12604;DHT22;6367;52.508;13.284;2023-04-01T23:53:59;7.80;99.90
12604;DHT22;6367;52.508;13.284;2023-04-01T23:56:43;7.90;99.90
12604;DHT22;6367;52.508;13.284;2023-04-01T23:59:37;7.80;99.90
